Time;durP1;ratioP1;P1;durP2;ratioP2;P2;SDS_P1;SDS_P2;PMS_P1;PMS_P2;Temp;Humidity;BMP_temperature;BMP_pressure;BME280_temperature;BME280_humidity;BME280_pressure;Samples;Min_cycle;Max_cycle;Signal;HPM_P1;HPM_P2
2022/08/25 00:00:30;;;;;;;14.03;4.20;;;;;;;24.49;34.51;100395.62;124187;1099;104233;-75
2022/08/25 00:03:12;;;;;;;16.27;3.90;;;;;;;24.48;34.83;100399.20;124233;1099;103731;-76
2022/08/25 00:05:43;;;;;;;10.90;4.27;;;;;;;24.45;34.81;100396.59;124181;1102;102061;-76
2022/08/25 00:08:15;;;;;;;10.87;3.73;;;;;;;24.40;34.78;100394.92;124255;1099;102165;-76
2022/08/25 00:10:46;;;;;;;8.80;4.20;;;;;;;24.40;34.95;100402.97;124204;1102;104201;-76
2022/08/25 00:13:17;;;;;;;11.05;4.00;;;;;;;24.40;34.71;100400.29;124217;1099;104248;-76
2022/08/25 00:15:48;;;;;;;13.07;4.03;;;;;;;24.37;34.79;100402.14;124194;1100;104621;-76
2022/08/25 00:18:19;;;;;;;12.27;3.97;;;;;;;24.34;34.96;100392.39;124146;1099;104232;-76
2022/08/25 00:20:50;;;;;;;10.83;4.27;;;;;;;24.33;34.89;100401.34;124261;1099;101851;-75
2022/08/25 00:23:21;;;;;;;11.80;4.10;;;;;;;24.30;34.89;100403.22;124263;1099;104185;-76
2022/08/25 00:25:54;;;;;;;10.73;4.10;;;;;;;24.29;34.83;100402.31;124235;1099;104195;-76
2022/08/25 00:28:25;;;;;;;12.23;4.17;;;;;;;24.29;35.03;100399.63;124148;1099;104166;-76
2022/08/25 00:30:57;;;;;;;10.17;4.20;;;;;;;24.28;34.96;100394.30;124204;1102;104201;-76
2022/08/25 00:33:30;;;;;;;13.30;4.20;;;;;;;24.23;34.87;100400.67;124211;1102;104220;-76
2022/08/25 00:36:01;;;;;;;6.93;4.20;;;;;;;24.23;34.94;100402.45;124164;1100;104223;-76
2022/08/25 00:38:32;;;;;;;9.93;4.03;;;;;;;24.21;34.82;100396.25;124239;1099;104293;-75
2022/08/25 00:41:06;;;;;;;12.50;4.63;;;;;;;24.20;34.90;100400.73;124245;1099;104245;-75
2022/08/25 00:43:47;;;;;;;9.53;4.13;;;;;;;24.17;34.89;100391.89;124212;1098;102838;-75
2022/08/25 00:46:20;;;;;;;14.23;4.30;;;;;;;24.17;34.70;100391.89;124195;1102;102810;-76
2022/08/25 00:48:56;;;;;;;10.13;4.07;;;;;;;24.15;34.96;100391.02;124282;1099;102762;-76
2022/08/25 00:51:36;;;;;;;10.13;4.17;;;;;;;24.13;35.12;100379.46;124227;1099;104176;-75
2022/08/25 00:54:11;;;;;;;10.77;4.00;;;;;;;24.10;34.73;100390.25;124191;1099;102855;-76
2022/08/25 00:56:43;;;;;;;12.60;4.30;;;;;;;24.04;34.92;100384.12;124210;1099;104160;-76
2022/08/25 00:59:15;;;;;;;9.33;4.30;;;;;;;24.00;34.82;100381.53;124252;1099;104236;-76
2022/08/25 01:01:46;;;;;;;13.97;4.30;;;;;;;23.94;34.88;100387.90;124219;1099;104201;-76
2022/08/25 01:04:17;;;;;;;12.80;4.47;;;;;;;23.89;35.02;100384.45;124252;1099;104208;-76
2022/08/25 01:06:50;;;;;;;14.77;4.80;;;;;;;23.85;34.90;100377.38;124153;1099;104232;-75
2022/08/25 01:09:21;;;;;;;11.67;4.53;;;;;;;23.86;34.45;100376.47;124191;1099;104159;-75
2022/08/25 01:11:53;;;;;;;13.00;4.13;;;;;;;23.81;34.77;100370.27;124209;1099;104271;-76
2022/08/25 01:14:26;;;;;;;12.80;3.87;;;;;;;23.75;35.04;100373.08;124224;1099;104169;-76
2022/08/25 01:16:58;;;;;;;10.05;4.03;;;;;;;23.72;34.89;100370.45;124239;1102;101830;-76
2022/08/25 01:19:32;;;;;;;14.13;4.50;;;;;;;23.69;35.12;100368.75;124155;1099;103559;-76
2022/08/25 01:22:04;;;;;;;12.30;4.10;;;;;;;23.65;34.93;100367.03;124206;1099;104034;-76
2022/08/25 01:24:41;;;;;;;11.47;4.00;;;;;;;23.60;35.21;100369.80;124265;1099;104153;-76
2022/08/25 01:27:12;;;;;;;10.73;3.93;;;;;;;23.55;34.97;100365.48;124205;1099;104226;-76
2022/08/25 01:29:44;;;;;;;16.07;4.80;;;;;;;23.50;35.58;100362.89;124267;1099;104586;-75
2022/08/25 01:32:15;;;;;;;14.57;4.63;;;;;;;23.49;35.05;100358.44;124246;1099;101948;-76
2022/08/25 01:34:47;;;;;;;11.50;4.60;;;;;;;23.48;35.69;100356.66;124161;1099;104431;-76
2022/08/25 01:37:19;;;;;;;11.80;4.37;;;;;;;23.45;35.14;100362.08;124215;1100;104271;-76
2022/08/25 01:39:50;;;;;;;14.77;4.50;;;;;;;23.41;35.70;100358.59;124208;1099;104236;-76
2022/08/25 01:42:42;;;;;;;12.73;4.20;;;;;;;23.36;35.48;100352.45;124188;1099;101879;-76
2022/08/25 01:45:13;;;;;;;14.13;4.23;;;;;;;23.40;35.65;100359.48;124249;1099;104335;-76
2022/08/25 01:47:44;;;;;;;9.15;4.15;;;;;;;23.39;35.36;100360.42;124247;1099;101935;-76
2022/08/25 01:50:15;;;;;;;9.73;4.23;;;;;;;23.36;35.51;100354.22;124252;1099;103382;-76
2022/08/25 01:52:55;;;;;;;9.37;4.23;;;;;;;23.31;35.83;100356.98;124225;1099;104335;-76
2022/08/25 01:55:26;;;;;;;9.93;4.10;;;;;;;23.28;35.87;100354.36;124207;1099;104638;-76
2022/08/25 01:57:58;;;;;;;11.73;4.53;;;;;;;23.26;35.56;100361.55;124200;1100;104249;-76
2022/08/25 02:00:29;;;;;;;9.47;4.20;;;;;;;23.22;35.65;100366.09;124183;1099;104387;-76
2022/08/25 02:03:00;;;;;;;8.30;4.23;;;;;;;23.19;35.50;100357.22;124201;1099;104335;-75
2022/08/25 02:05:32;;;;;;;14.07;4.17;;;;;;;23.17;35.97;100359.05;124174;1099;104194;-76
2022/08/25 02:08:03;;;;;;;13.73;4.23;;;;;;;23.13;35.96;100359.10;124197;1099;102794;-76
2022/08/25 02:10:35;;;;;;;13.30;4.00;;;;;;;23.13;35.54;100360.91;124242;1099;104262;-76
2022/08/25 02:13:07;;;;;;;17.27;4.33;;;;;;;23.09;35.69;100360.09;124232;1099;103598;-75
2022/08/25 02:15:43;;;;;;;14.07;4.13;;;;;;;23.08;35.81;100363.66;124231;1099;102359;-76
2022/08/25 02:18:14;;;;;;;14.07;4.37;;;;;;;23.07;36.13;100355.63;124225;1099;104163;-75
2022/08/25 02:20:46;;;;;;;32.13;6.33;;;;;;;23.05;36.15;100358.34;124238;1099;104239;-76
2022/08/25 02:23:17;;;;;;;24.17;5.47;;;;;;;23.02;35.49;100354.84;124231;1099;104238;-76
2022/08/25 02:25:49;;;;;;;14.40;4.30;;;;;;;22.99;36.09;100350.42;124247;1099;104159;-76
2022/08/25 02:28:20;;;;;;;12.97;4.50;;;;;;;22.96;36.17;100358.50;124308;1099;104628;-76
2022/08/25 02:30:51;;;;;;;13.57;4.03;;;;;;;22.94;36.48;100355.84;124202;1099;104198;-77
2022/08/25 02:33:24;;;;;;;15.70;4.80;;;;;;;22.91;36.54;100353.23;124268;1099;104159;-76
2022/08/25 02:35:59;;;;;;;17.95;5.03;;;;;;;22.85;36.12;100356.01;124187;1099;104217;-76
2022/08/25 02:41:42;;;;;;;11.43;4.20;;;;;;;22.80;36.85;100356.09;124614;1099;104205;-75
2022/08/25 02:44:43;;;;;;;11.70;4.47;;;;;;;22.76;36.75;100357.03;124158;1099;109345;-76
2022/08/25 02:47:20;;;;;;;8.30;4.20;;;;;;;22.70;36.77;100362.48;125458;1102;101701;-76
2022/08/25 02:49:54;;;;;;;10.63;4.10;;;;;;;22.67;37.07;100365.20;124289;1098;102935;-76
2022/08/25 02:52:25;;;;;;;14.20;4.37;;;;;;;22.61;37.57;100363.54;124183;1099;104325;-76
2022/08/25 02:54:56;;;;;;;9.23;4.20;;;;;;;22.58;37.85;100366.27;124255;1099;104099;-76
2022/08/25 02:57:28;;;;;;;12.53;4.23;;;;;;;22.52;37.19;100363.69;124242;1099;104255;-76
2022/08/25 02:59:59;;;;;;;13.80;4.55;;;;;;;22.48;37.31;100375.32;124251;1099;104267;-76
2022/08/25 03:02:30;;;;;;;15.07;4.50;;;;;;;22.42;37.67;100375.41;124228;1099;104184;-76
2022/08/25 03:05:01;;;;;;;14.03;4.00;;;;;;;22.39;37.91;100372.78;124236;1100;104163;-75
2022/08/25 03:07:32;;;;;;;13.37;4.27;;;;;;;22.36;37.93;100378.17;124223;1102;104236;-75
2022/08/25 03:10:09;;;;;;;13.07;4.47;;;;;;;22.33;37.74;100383.56;124186;1102;102810;-76
2022/08/25 03:12:41;;;;;;;14.67;4.60;;;;;;;22.28;38.40;100375.58;124254;1100;104188;-76
2022/08/25 03:15:15;;;;;;;11.30;4.10;;;;;;;22.25;39.07;100376.53;124215;1099;102797;-75
2022/08/25 03:17:48;;;;;;;14.23;4.77;;;;;;;22.22;38.88;100371.23;124212;1099;104169;-75
2022/08/25 03:20:20;;;;;;;13.03;5.10;;;;;;;22.22;38.61;100381.92;124253;1099;104153;-76
2022/08/25 03:22:52;;;;;;;8.90;4.20;;;;;;;22.22;38.36;100381.92;124222;1099;103478;-75
2022/08/25 03:28:12;;;;;;;12.93;4.20;;;;;;;22.21;38.36;100376.59;124173;1099;104223;-76
2022/08/25 03:30:44;;;;;;;16.20;4.30;;;;;;;22.20;39.35;100382.84;124221;1099;102794;-76
2022/08/25 03:33:15;;;;;;;14.80;4.30;;;;;;;22.21;38.80;100382.81;124242;1099;102357;-76
2022/08/25 03:35:46;;;;;;;10.60;4.80;;;;;;;22.22;39.30;100381.02;124187;1099;102120;-76
2022/08/25 03:38:17;;;;;;;8.63;4.17;;;;;;;22.21;38.82;100380.14;124202;1099;104172;-76
2022/08/25 03:40:48;;;;;;;12.77;4.70;;;;;;;22.21;38.56;100382.81;124237;1099;102946;-76
2022/08/25 03:43:20;;;;;;;12.27;4.13;;;;;;;22.20;39.18;100383.70;124169;1100;104260;-76
2022/08/25 03:45:52;;;;;;;16.37;4.67;;;;;;;22.20;39.25;100388.18;124249;1102;102819;-76
2022/08/25 03:48:23;;;;;;;12.33;4.30;;;;;;;22.20;39.42;100390.84;124179;1099;104225;-75
2022/08/25 03:50:57;;;;;;;17.43;4.83;;;;;;;22.17;39.20;100382.87;124261;1100;104214;-76
2022/08/25 03:53:28;;;;;;;12.17;4.23;;;;;;;22.16;38.75;100386.44;124201;1102;104191;-76
2022/08/25 03:55:59;;;;;;;12.97;4.23;;;;;;;22.16;39.58;100384.67;124222;1099;104201;-75
2022/08/25 03:58:31;;;;;;;13.83;5.07;;;;;;;22.14;38.82;100377.58;124203;1102;104182;-76
2022/08/25 04:01:02;;;;;;;13.77;5.00;;;;;;;22.16;39.16;100387.34;124161;1102;102794;-76
2022/08/25 04:03:33;;;;;;;15.73;4.73;;;;;;;22.15;39.48;100388.24;124258;1102;102432;-76
2022/08/25 04:06:06;;;;;;;19.40;4.77;;;;;;;22.13;39.54;100384.72;124267;1099;101909;-75
2022/08/25 04:08:38;;;;;;;21.10;5.57;;;;;;;22.15;39.82;100385.56;124185;1100;104368;-77
2022/08/25 04:11:12;;;;;;;15.47;4.60;;;;;;;22.15;40.19;100380.23;124206;1099;102778;-76
2022/08/25 04:13:45;;;;;;;18.70;5.37;;;;;;;22.12;40.28;100382.94;124227;1102;104194;-76
2022/08/25 04:16:20;;;;;;;15.07;4.77;;;;;;;22.13;39.30;100381.14;124194;1099;104169;-77
2022/08/25 04:18:52;;;;;;;19.83;4.67;;;;;;;22.14;39.57;100380.25;124177;1102;104277;-76
2022/08/25 04:21:25;;;;;;;17.70;5.03;;;;;;;22.13;39.92;100384.72;124185;1099;104182;-76
2022/08/25 04:23:57;;;;;;;13.67;4.70;;;;;;;22.16;40.06;100386.44;124186;1102;102797;-76
2022/08/25 04:26:31;;;;;;;13.70;5.10;;;;;;;22.13;40.13;100384.72;124198;1102;102385;-76
2022/08/25 04:29:04;;;;;;;14.20;5.60;;;;;;;22.14;39.88;100378.45;124215;1102;104706;-76
2022/08/25 04:31:36;;;;;;;19.30;5.17;;;;;;;22.13;40.26;100383.81;124271;1100;103058;-76
2022/08/25 04:34:08;;;;;;;15.23;5.40;;;;;;;22.13;40.41;100382.05;124176;1100;104169;-76
2022/08/25 04:36:40;;;;;;;15.43;4.90;;;;;;;22.15;40.18;100379.35;124206;1100;104242;-76
2022/08/25 04:39:12;;;;;;;14.43;4.97;;;;;;;22.17;40.39;100388.22;124186;1099;102856;-76
2022/08/25 04:41:43;;;;;;;19.40;4.90;;;;;;;22.20;39.72;100391.72;124216;1099;104207;-76
2022/08/25 04:44:14;;;;;;;13.50;4.80;;;;;;;22.25;40.35;100395.23;124259;1099;102890;-76
2022/08/25 04:46:46;;;;;;;16.90;4.57;;;;;;;22.30;40.24;100394.27;124182;1099;104314;-76
2022/08/25 04:49:18;;;;;;;12.93;4.37;;;;;;;22.33;40.14;100396.93;124205;1102;104239;-76
2022/08/25 04:51:49;;;;;;;14.83;4.47;;;;;;;22.35;40.42;100397.81;124186;1102;104195;-76
2022/08/25 04:54:21;;;;;;;14.33;4.50;;;;;;;22.39;40.32;100400.42;124217;1102;104223;-76
2022/08/25 04:56:53;;;;;;;13.40;4.40;;;;;;;22.42;39.84;100396.80;124202;1102;117790;-76
2022/08/25 04:59:27;;;;;;;12.93;3.97;;;;;;;22.46;40.02;100401.20;124234;1099;104159;-76
2022/08/25 05:02:00;;;;;;;13.57;4.33;;;;;;;22.47;39.81;100392.29;124154;1099;104239;-76
2022/08/25 05:04:33;;;;;;;19.13;4.37;;;;;;;22.48;39.98;100399.38;125664;1099;104235;-76
2022/08/25 05:07:05;;;;;;;14.07;4.40;;;;;;;22.49;39.84;100403.84;124237;1102;104156;-75
2022/08/25 05:09:37;;;;;;;15.20;4.27;;;;;;;22.55;40.10;100400.20;124233;1101;104153;-74
2022/08/25 05:12:09;;;;;;;14.97;4.30;;;;;;;22.59;39.67;100408.15;124137;1101;104245;-75
2022/08/25 05:14:40;;;;;;;13.93;4.30;;;;;;;22.60;39.33;100393.84;124143;1102;102310;-75
2022/08/25 05:17:12;;;;;;;14.77;4.27;;;;;;;22.63;39.99;100395.60;124242;1099;104281;-75
2022/08/25 05:19:44;;;;;;;15.70;3.83;;;;;;;22.68;39.74;100379.48;124223;1099;104188;-74
2022/08/25 05:22:15;;;;;;;12.13;4.30;;;;;;;22.71;39.79;100387.46;124221;1099;104166;-74
2022/08/25 05:24:47;;;;;;;13.83;4.27;;;;;;;22.73;39.81;100382.96;124172;1100;104198;-75
2022/08/25 05:27:18;;;;;;;15.57;3.97;;;;;;;22.79;39.35;100391.76;125539;1099;104267;-75
2022/08/25 05:29:49;;;;;;;15.67;4.57;;;;;;;22.86;39.28;100386.30;124191;1101;104301;-74
2022/08/25 05:32:25;;;;;;;9.97;4.00;;;;;;;22.90;38.64;100386.23;124223;1102;104236;-75
2022/08/25 05:34:56;;;;;;;15.80;4.20;;;;;;;22.96;39.16;100379.91;124189;1102;102884;-76
2022/08/25 05:37:28;;;;;;;16.87;3.93;;;;;;;23.03;39.17;100380.67;124144;1100;104217;-76
2022/08/25 05:40:00;;;;;;;14.13;3.83;;;;;;;23.08;38.76;100373.47;124172;1102;102880;-75
2022/08/25 05:42:31;;;;;;;11.55;3.80;;;;;;;23.14;38.67;100376.06;124182;1102;104319;-75
2022/08/25 05:45:05;;;;;;;12.60;4.27;;;;;;;23.20;38.40;100373.24;124221;1100;104196;-75
2022/08/25 05:47:36;;;;;;;12.13;3.60;;;;;;;23.25;38.72;100371.39;124221;1099;104277;-76
2022/08/25 05:50:10;;;;;;;13.40;4.00;;;;;;;23.32;38.29;100372.15;124147;1102;104252;-75
2022/08/25 05:52:41;;;;;;;12.07;3.70;;;;;;;23.37;37.99;100369.38;124215;1102;104291;-75
2022/08/25 05:55:14;;;;;;;8.97;3.90;;;;;;;23.43;38.12;100370.14;124174;1102;104242;-76
2022/08/25 05:57:46;;;;;;;9.90;3.92;;;;;;;23.47;37.93;100365.63;124270;1099;104175;-75
2022/08/25 06:00:17;;;;;;;19.97;4.13;;;;;;;23.50;37.59;100354.86;124180;1099;104300;-75
2022/08/25 06:02:50;;;;;;;12.57;3.67;;;;;;;23.57;37.82;100360.96;124244;1102;102398;-75
2022/08/25 06:05:23;;;;;;;10.40;3.50;;;;;;;23.61;37.54;100358.19;124201;1100;104252;-76
2022/08/25 06:07:55;;;;;;;7.92;3.40;;;;;;;23.67;37.27;100359.88;124221;1099;104314;-76
2022/08/25 06:10:29;;;;;;;11.07;3.87;;;;;;;23.73;37.41;100354.36;124217;1102;104159;-75
2022/08/25 06:13:01;;;;;;;11.83;3.53;;;;;;;23.80;37.27;100357.81;124205;1102;104257;-75
2022/08/25 06:15:32;;;;;;;11.40;4.00;;;;;;;23.89;37.53;100359.42;124153;1099;104166;-75
2022/08/25 06:18:06;;;;;;;15.27;4.13;;;;;;;23.94;36.90;100355.74;124204;1102;104213;-76
2022/08/25 06:20:38;;;;;;;16.00;3.80;;;;;;;24.00;36.70;100354.73;124160;1102;104294;-75
2022/08/25 06:23:09;;;;;;;11.93;3.43;;;;;;;24.05;36.52;100353.70;124194;1102;104162;-75
2022/08/25 06:25:41;;;;;;;9.67;3.67;;;;;;;24.12;36.32;100353.56;124157;1102;103176;-75
2022/08/25 06:28:14;;;;;;;16.07;3.67;;;;;;;24.18;36.23;100353.42;124212;1099;103573;-75
2022/08/25 06:30:47;;;;;;;12.10;3.63;;;;;;;24.27;36.07;100350.53;124192;1099;104702;-75
2022/08/25 06:33:20;;;;;;;11.40;3.40;;;;;;;24.33;35.94;100358.44;124169;1099;104255;-75
2022/08/25 06:35:55;;;;;;;8.48;3.50;;;;;;;24.41;35.76;100358.25;124253;1099;104160;-76
2022/08/25 06:38:36;;;;;;;12.97;3.70;;;;;;;24.50;35.55;100357.16;124231;1099;104300;-76
2022/08/25 06:41:11;;;;;;;10.80;3.73;;;;;;;24.61;35.48;100352.45;124236;1099;104169;-75
2022/08/25 06:43:45;;;;;;;13.10;3.83;;;;;;;24.69;35.02;100344.20;124190;1099;104202;-75
2022/08/25 06:46:19;;;;;;;11.80;3.60;;;;;;;24.78;35.29;100343.98;124231;1102;104315;-76
2022/08/25 06:48:50;;;;;;;12.90;3.63;;;;;;;24.86;35.02;100341.97;124226;1102;104157;-76
2022/08/25 06:51:26;;;;;;;11.00;3.93;;;;;;;24.99;35.15;100336.28;124229;1099;104214;-75
2022/08/25 06:53:58;;;;;;;15.33;4.07;;;;;;;25.13;35.28;100336.78;124175;1099;104265;-76
2022/08/25 06:56:33;;;;;;;15.43;3.93;;;;;;;25.28;34.89;100340.87;124224;1100;104232;-75
2022/08/25 06:59:06;;;;;;;11.97;3.37;;;;;;;25.38;34.86;100334.33;124250;1099;104217;-75
2022/08/25 07:01:39;;;;;;;15.43;4.00;;;;;;;25.51;33.89;100348.31;124284;1099;102299;-75
2022/08/25 07:04:11;;;;;;;12.10;3.60;;;;;;;25.62;33.56;100332.75;124217;1099;102759;-75
2022/08/25 07:06:45;;;;;;;9.73;3.70;;;;;;;25.77;33.32;100334.12;124196;1099;104238;-75
2022/08/25 07:09:20;;;;;;;11.60;3.50;;;;;;;25.90;33.28;100331.94;124205;1100;104713;-76
2022/08/25 07:11:55;;;;;;;7.87;3.47;;;;;;;26.04;33.14;100336.92;124165;1102;102466;-76
2022/08/25 07:14:27;;;;;;;14.60;3.93;;;;;;;26.21;33.35;100331.02;124193;1102;104192;-76
2022/08/25 07:17:02;;;;;;;14.80;3.67;;;;;;;26.41;32.75;100324.09;124214;1099;104325;-77
2022/08/25 07:19:34;;;;;;;12.20;3.83;;;;;;;26.55;33.35;100319.14;124212;1102;109220;-76
2022/08/25 07:22:09;;;;;;;17.47;4.30;;;;;;;26.69;33.24;100330.38;124185;1098;104251;-77
2022/08/25 07:24:43;;;;;;;11.77;3.63;;;;;;;26.87;32.80;100327.98;124175;1099;104248;-75
2022/08/25 07:27:15;;;;;;;13.17;3.87;;;;;;;27.06;33.19;100326.38;124223;1099;104205;-76
2022/08/25 07:29:48;;;;;;;14.37;3.67;;;;;;;27.24;32.92;100318.59;124205;1099;119789;-76
2022/08/25 07:32:20;;;;;;;14.63;4.00;;;;;;;27.40;32.53;100325.20;124237;1099;104235;-76
2022/08/25 07:37:46;;;;;;;15.50;3.60;;;;;;;27.74;31.70;100317.67;124180;1099;104258;-76
2022/08/25 07:40:21;;;;;;;13.87;3.70;;;;;;;27.86;32.38;100313.60;124241;1102;104150;-78
2022/08/25 07:42:57;;;;;;;15.07;3.77;;;;;;;27.91;32.39;100317.89;124282;1099;101952;-77
2022/08/25 07:45:32;;;;;;;11.77;4.03;;;;;;;28.01;32.09;100320.26;124228;1099;104153;-76
2022/08/25 07:48:22;;;;;;;13.63;3.93;;;;;;;28.09;31.99;100318.13;124268;1099;104229;-76
2022/08/25 07:50:54;;;;;;;17.67;3.83;;;;;;;28.24;31.75;100322.04;124288;1102;111244;-76
2022/08/25 07:53:38;;;;;;;16.37;4.63;;;;;;;28.37;31.92;100311.61;124426;1099;101882;-77
2022/08/25 07:56:17;;;;;;;16.45;3.80;;;;;;;28.51;31.91;100317.30;124339;1099;103069;-76
2022/08/25 07:58:54;;;;;;;11.83;3.90;;;;;;;28.62;31.85;100312.36;124280;1099;104386;-76
2022/08/25 08:01:30;;;;;;;14.60;4.23;;;;;;;28.74;31.19;100316.38;124273;1102;104268;-76
2022/08/25 08:04:02;;;;;;;15.90;4.00;;;;;;;28.82;30.97;100307.95;124333;1099;104211;-75
2022/08/25 08:06:33;;;;;;;14.67;4.10;;;;;;;28.91;31.04;100307.55;124284;1102;104159;-76
2022/08/25 08:09:06;;;;;;;12.43;3.70;;;;;;;28.99;31.03;100309.91;124286;1099;102429;-76
2022/08/25 08:11:43;;;;;;;16.70;3.70;;;;;;;29.05;31.06;100302.41;124305;1099;104241;-76
2022/08/25 08:14:16;;;;;;;12.80;3.83;;;;;;;29.14;30.94;100298.43;124304;1102;104169;-76
2022/08/25 08:16:46;;;;;;;;;;;;;;;29.21;30.57;100302.63;124318;1102;102871;-76
2022/08/25 08:19:21;;;;;;;13.77;4.03;;;;;;;29.31;30.71;100299.51;124317;1101;102951;-76
2022/08/25 08:21:56;;;;;;;20.53;3.93;;;;;;;29.39;30.80;100300.06;124257;1099;104163;-75
2022/08/25 08:24:33;;;;;;;14.03;4.07;;;;;;;29.48;30.53;100304.14;124279;1102;104133;-76
2022/08/25 08:27:09;;;;;;;16.37;4.20;;;;;;;29.56;30.32;100299.25;124287;1099;102755;-77
2022/08/25 08:29:44;;;;;;;15.60;3.90;;;;;;;29.62;30.11;100304.38;124323;1099;102455;-76
2022/08/25 08:32:17;;;;;;;14.77;3.60;;;;;;;29.67;30.10;100299.65;124273;1102;104248;-76
2022/08/25 08:34:51;;;;;;;12.13;3.53;;;;;;;29.66;29.56;100289.77;124354;1100;102158;-76
2022/08/25 08:37:24;;;;;;;18.13;3.93;;;;;;;29.70;29.98;100291.39;124264;1099;104191;-76
2022/08/25 08:40:00;;;;;;;18.42;3.80;;;;;;;29.72;29.75;100281.37;124299;1099;104211;-76
2022/08/25 08:42:51;;;;;;;15.50;3.73;;;;;;;29.82;29.67;100297.19;124300;1099;102271;-76
2022/08/25 08:45:37;;;;;;;13.30;3.70;;;;;;;29.86;29.38;100291.56;124449;1099;101912;-76
2022/08/25 08:48:57;;;;;;;20.35;3.95;;;;;;;29.89;29.29;100301.37;124289;1099;103586;-76
2022/08/25 08:51:33;;;;;;;18.33;4.30;;;;;;;29.91;28.61;100283.23;124316;1100;104226;-76
2022/08/25 08:54:13;;;;;;;18.27;4.03;;;;;;;29.96;28.73;100294.70;124313;1099;102292;-75
2022/08/25 08:56:52;;;;;;;18.13;4.50;;;;;;;29.97;28.60;100290.19;124293;1102;104178;-75
2022/08/25 08:59:26;;;;;;;23.37;4.37;;;;;;;29.96;28.24;100283.88;124299;1099;104194;-76
2022/08/25 09:02:04;;;;;;;26.63;4.30;;;;;;;30.04;28.50;100273.55;124302;1099;104190;-76
2022/08/25 09:04:43;;;;;;;25.47;4.90;;;;;;;30.06;27.42;100268.97;124229;1099;104416;-75
2022/08/25 09:07:29;;;;;;;15.40;4.30;;;;;;;30.13;28.16;100271.37;124236;1099;104163;-75
2022/08/25 09:10:04;;;;;;;19.23;3.90;;;;;;;30.18;27.93;100277.42;124282;1099;104187;-76
2022/08/25 09:12:50;;;;;;;28.57;5.10;;;;;;;30.18;28.02;100263.89;124268;1099;104236;-76
2022/08/25 09:18:41;;;;;;;22.63;4.73;;;;;;;30.35;27.85;100254.92;124269;1102;104320;-77
2022/08/25 09:21:22;;;;;;;24.12;5.28;;;;;;;30.42;28.20;100257.28;124970;1102;104220;-77
2022/08/25 09:24:14;;;;;;;20.27;4.63;;;;;;;30.54;28.05;100254.89;124869;1099;102480;-77
2022/08/25 09:27:09;;;;;;;24.80;4.53;;;;;;;30.60;27.92;100252.73;124984;1099;103579;-77
2022/08/25 09:29:59;;;;;;;23.60;5.23;;;;;;;30.58;27.32;100245.66;124969;1099;104207;-77
2022/08/25 09:32:36;;;;;;;19.87;4.60;;;;;;;30.68;27.77;100244.21;124373;1099;104890;-76
2022/08/25 09:35:18;;;;;;;24.33;5.13;;;;;;;30.73;27.79;100242.16;124236;1103;104181;-78
2022/08/25 09:38:04;;;;;;;24.30;4.73;;;;;;;30.85;27.73;100234.34;125423;1101;102257;-77
2022/08/25 09:40:43;;;;;;;29.10;5.00;;;;;;;30.93;27.51;100232.09;124959;1099;101767;-77
2022/08/25 09:43:30;;;;;;;28.17;5.53;;;;;;;31.03;27.78;100233.39;124209;1102;118938;-77
2022/08/25 09:46:12;;;;;;;22.97;5.37;;;;;;;31.16;27.69;100231.75;124188;1102;104156;-76
2022/08/25 09:48:52;;;;;;;29.63;5.30;;;;;;;31.19;27.54;100233.42;124907;1102;102313;-77
2022/08/25 09:51:31;;;;;;;23.67;5.13;;;;;;;31.24;27.10;100227.75;124900;1099;104207;-77
2022/08/25 09:54:16;;;;;;;30.20;6.13;;;;;;;31.28;27.20;100223.92;124963;1099;101803;-78
2022/08/25 09:56:53;;;;;;;22.00;4.97;;;;;;;31.37;27.45;100228.84;124223;1099;103595;-77
2022/08/25 09:59:32;;;;;;;26.43;5.50;;;;;;;31.41;27.02;100219.56;124209;1099;104457;-77
2022/08/25 10:02:24;;;;;;;25.60;5.77;;;;;;;31.45;27.27;100225.70;124197;1099;104236;-78
2022/08/25 10:05:02;;;;;;;25.13;5.70;;;;;;;31.51;27.15;100218.09;124224;1102;102252;-77
2022/08/25 10:07:40;;;;;;;34.13;5.67;;;;;;;31.61;27.42;100220.33;124277;1099;104156;-77
2022/08/25 10:10:24;;;;;;;20.77;5.17;;;;;;;31.67;26.91;100214.55;124334;1099;104177;-77
2022/08/25 10:12:59;;;;;;;28.03;5.47;;;;;;;31.73;27.12;100197.93;124328;1099;102604;-77
2022/08/25 10:15:40;;;;;;;26.27;5.37;;;;;;;31.71;26.69;100197.13;124294;1101;102672;-77
2022/08/25 10:18:27;;;;;;;27.77;5.47;;;;;;;31.75;26.79;100190.56;124284;1102;104271;-77
2022/08/25 10:21:12;;;;;;;28.70;5.57;;;;;;;31.84;26.82;100198.17;124522;1099;103730;-78
2022/08/25 10:23:47;;;;;;;22.90;5.17;;;;;;;31.92;26.38;100186.88;124257;1102;103444;-77
2022/08/25 10:26:31;;;;;;;27.47;5.37;;;;;;;31.99;26.53;100187.39;124273;1102;104396;-77
2022/08/25 10:29:27;;;;;;;31.67;6.20;;;;;;;32.06;26.41;100186.07;124277;1099;103434;-77
2022/08/25 10:32:10;;;;;;;21.60;5.07;;;;;;;32.11;26.14;100183.98;124736;1098;104893;-78
2022/08/25 10:34:49;;;;;;;26.23;4.58;;;;;;;32.12;26.03;100172.17;124273;1099;102868;-77
2022/08/25 10:37:37;;;;;;;24.07;5.47;;;;;;;32.23;26.35;100177.83;124261;1102;102408;-77
2022/08/25 10:40:21;;;;;;;25.03;5.23;;;;;;;32.24;25.87;100171.44;124265;1102;104303;-76
2022/08/25 10:43:06;;;;;;;32.83;5.10;;;;;;;32.34;25.97;100174.47;124300;1103;104239;-77
2022/08/25 10:45:44;;;;;;;24.80;5.60;;;;;;;32.40;25.72;100170.52;124280;1099;104172;-77
2022/08/25 10:48:58;;;;;;;22.53;5.10;;;;;;;32.46;25.68;100164.72;124226;1099;102745;-76
2022/08/25 10:51:46;;;;;;;23.93;4.63;;;;;;;32.55;25.26;100166.87;124236;1102;102765;-77
2022/08/25 10:54:38;;;;;;;20.83;4.07;;;;;;;32.51;24.36;100165.30;124326;1102;104310;-77
2022/08/25 10:57:18;;;;;;;21.73;3.57;;;;;;;32.53;23.96;100163.34;124328;1100;102286;-76
2022/08/25 11:00:07;;;;;;;18.47;3.93;;;;;;;32.62;23.77;100156.49;124303;1102;102382;-77
2022/08/25 11:03:07;;;;;;;21.35;3.90;;;;;;;32.70;23.57;100146.05;124306;1102;102293;-76
2022/08/25 11:05:47;;;;;;;22.23;4.90;;;;;;;32.79;23.54;100158.19;124271;1099;118877;-75
2022/08/25 11:08:29;;;;;;;19.57;4.20;;;;;;;32.80;23.22;100154.48;124252;1102;101874;-76
2022/08/25 11:11:08;;;;;;;15.57;3.77;;;;;;;32.85;23.06;100148.77;124301;1098;104207;-76
2022/08/25 11:14:00;;;;;;;17.83;3.80;;;;;;;32.88;22.97;100148.57;124253;1102;104207;-77
2022/08/25 11:16:40;;;;;;;17.20;4.10;;;;;;;32.77;22.90;100143.81;124262;1102;104210;-76
2022/08/25 11:19:19;;;;;;;12.00;3.50;;;;;;;32.85;22.69;100140.61;124254;1101;104210;-77
2022/08/25 11:22:01;;;;;;;16.83;3.63;;;;;;;32.86;22.75;100140.52;124244;1099;104159;-75
2022/08/25 11:24:47;;;;;;;15.80;3.77;;;;;;;32.94;22.95;100137.31;124758;1099;104227;-75
2022/08/25 11:27:24;;;;;;;16.65;4.00;;;;;;;33.00;23.09;100134.20;124202;1102;104166;-76
2022/08/25 11:30:07;;;;;;;19.20;3.97;;;;;;;33.11;22.94;100138.95;124302;1099;104191;-76
2022/08/25 11:32:42;;;;;;;17.97;4.07;;;;;;;33.17;22.96;100127.69;124234;1099;104238;-76
2022/08/25 11:35:17;;;;;;;16.57;4.10;;;;;;;33.22;22.91;100132.86;124271;1101;104332;-77
2022/08/25 11:38:05;;;;;;;24.90;3.90;;;;;;;33.24;22.32;100145.39;124284;1099;102784;-76
2022/08/25 11:41:01;;;;;;;18.83;3.77;;;;;;;33.24;22.37;100134.52;125318;1098;104667;-78
2022/08/25 11:43:52;;;;;;;10.37;2.80;;;;;;;33.21;22.22;100129.28;124258;1102;102439;-76
2022/08/25 11:46:38;;;;;;;18.40;4.05;;;;;;;33.24;22.56;100123.64;124240;1102;103066;-76
2022/08/25 11:49:28;;;;;;;10.97;3.33;;;;;;;33.27;22.01;100111.67;124268;1099;102656;-77
2022/08/25 11:52:13;;;;;;;15.73;3.90;;;;;;;33.26;22.35;100110.81;125007;1099;101780;-78